Record high temperature 100.4°F Record low temperature 10.6°F Record high gust 40 mph Record high average 22.8 mph Record daily rain 11.65 in. Record low windchill 2.7°F Record high barometer 30.773 in. Record low barometer 29.184 in.
Daily high pressure 30.023 in. Daily low pressure 29.880 in. Daily low windchill 66.8°F Daily high heat index 92.5°F Daily high gust speed 10.0 mph W Daily high average speed 4.2 mph E
Forecast: mostly cloudy with little temp. change. precipitation likely.
On the Greenway Weather Data - Tigard OR
LAST READING AT TIME: 5:18 PM DATE: August 01 2014, time of next update: 5:19 pm
Current Weather/Dry Current Temperature 88.7°F (31.5°C) (Heat Index 90.1°F ), Apparent temp 92.4°F
Maximum Temperature (since midnight)90.2°F at: 4:13 PM Minimum Temperature (since midnight)66.8°F at: 3:30 AM
Average windspeed (ten minute)2.0 mph Wind Direction (ten minute)SW (225°)
Heat Index 90.1°F Maximum Gust (last hour) 7 mph at: 4:39 PM
Maximum Gust (since midnight)10 mph at: 4:16 PM Maximum 1 minute average (since midnight)4.2 mph at: 5:49 AM
Rainfall (last hour)0.00 in. (0.0 mm) Rainfall (since midnight)0.00 in. (0.0 mm) ---
Rainfall This month 0.00 in. (0.0 mm) Rainfall To date this year 30.70 in. (779.7 mm)
Maximum rain per minute (last hour)0.00 in/min Maximum rain per hour (last 6 hours)0.00 in/hour
Yesterdays rainfall 0.00 in DewPoint 63.3°F (Wet Bulb :72.4°F )
Humidity 43 %, Humidex 98.7°F Barometer corrected to msl29.881 in. (1011.9 hPa)
Pressure change -0.01 in. (last hour) Trend (last hour)STEADY
Pressure change (last 12 hours)-0.11 in Pressure change (last 6 hours)-0.10 in

This page is updated from recent data collected by a DAVIS VANTAGE PRO weather station Use the Reload or Refresh facility on your browser to retrieve the latest data.


Click here for the last 24 hour graph
Click here for the last 48 hour graph
Click here for the last 72 hour graph
Click here for the month to date graph


Weather report/Warning/Metars

PORTLAND-HILLSBORO AIRPORT, OR, United States (KHIO) 45-33N 122-57W 68M
Aug 01, 2014 - 07:53 PM EDT / 2014.08.01 2353 UTC
Wind: Variable at 7 MPH (6 KT):0
Visibility: 10 mile(s):0
Sky conditions: clear
Temperature: 91.9 F (33.3 C)
Dew Point: 59.0 F (15.0 C)
Relative Humidity: 33%
Pressure (altimeter): 29.89 in. Hg (1012 hPa)
Pressure tendency: 0.06 inches (1.9 hPa) lower than three hours ago
ob: KHIO 012353Z VRB06KT 10SM CLR 33/15 A2989 RMK AO2 SLP118 T03330150 10333 20239 56019
cycle: 0
PORTLAND INTERNATIONAL  AIRPORT, OR, United States (KPDX) 45-35N 122-36W 7M
Aug 01, 2014 - 07:53 PM EDT / 2014.08.01 2353 UTC
Wind: from the NNW (330 degrees) at 8 MPH (7 KT):0
Visibility: 10 mile(s):0
Sky conditions: mostly clear
Weather: Towering cumulus clouds observed
Temperature: 89.1 F (31.7 C)
Dew Point: 59.0 F (15.0 C)
Relative Humidity: 36%
Pressure (altimeter): 29.89 in. Hg (1012 hPa)
Pressure tendency: 0.06 inches (2.1 hPa) lower than three hours ago
ob: KPDX 012353Z 33007KT 10SM FEW060 FEW150 FEW250 32/15 A2989 RMK AO2 SLP122 TCU DSNT NE T03170150 10317 20228 58021
cycle: 0
PORTLAND-TROUTDALE AIRPORT, OR, United States (KTTD) 45-33N 122-25W 14M
Aug 01, 2014 - 07:53 PM EDT / 2014.08.01 2353 UTC
Wind: Variable at 5 MPH (4 KT):0
Visibility: 10 mile(s):0
Sky conditions: clear
Temperature: 89.1 F (31.7 C)
Dew Point: 57.9 F (14.4 C)
Relative Humidity: 35%
Pressure (altimeter): 29.88 in. Hg (1011 hPa)
Pressure tendency: 0.06 inches (2.1 hPa) lower than three hours ago
ob: KTTD 012353Z VRB04KT 10SM CLR 32/14 A2988 RMK AO2 SLP117 T03170144 10322 20228 58021
cycle: 0
MCMINNVILLE MUNICIPAL AIRPORT , OR, United States (KMMV) 45-12N 123-08W 48M
Aug 01, 2014 - 07:53 PM EDT / 2014.08.01 2353 UTC
Wind: from the NE (040 degrees) at 7 MPH (6 KT) gusting to 17 MPH (15 KT):0
Visibility: 10 mile(s):0
Sky conditions: clear
Temperature: 96.1 F (35.6 C)
Dew Point: 53.1 F (11.7 C)
Relative Humidity: 23%
Pressure (altimeter): 29.89 in. Hg (1012 hPa)
Pressure tendency: 0.06 inches (2.2 hPa) lower than three hours ago
ob: KMMV 012353Z AUTO 04006G15KT 10SM CLR 36/12 A2989 RMK AO2 SLP118 T03560117 10356 20244 56022
cycle: 0
SALEM MCNARY FIELD, OR, United States (KSLE) 44-54N 123-00W 59M
Aug 01, 2014 - 07:56 PM EDT / 2014.08.01 2356 UTC
Wind: from the NNE (030 degrees) at 8 MPH (7 KT):0
Visibility: 10 mile(s):0
Sky conditions: clear
Temperature: 91.0 F (32.8 C)
Dew Point: 55.9 F (13.3 C)
Relative Humidity: 30%
Pressure (altimeter): 29.88 in. Hg (1011 hPa)
Pressure tendency: 0.06 inches (2.1 hPa) lower than three hours ago
ob: KSLE 012356Z 03007KT 10SM CLR 33/13 A2988 RMK AO2 SLP118 T03280133 10333 20256 56021
cycle: 0


Sunset at:
8:40 pm

Moonrise at:
11:44 am 08/01/14

Moonset at:
10:35 pm 07/31/14

First Quarter  4 August 2014
Full moon  10 August 2014
Last Quarter17 August 2014
New moon 25 August 2014
Moon age: 4 days,19 hours,14 minutes,24%
Hours of possible daylight today was 14:45



Use the RELOAD facility on your browser to retrieve the latest data.

Click here for current Fire weather info
Click here for the daily CLIMATOLOGICAL SUMMARY
Click here for a daily update of the averages/extremes to date for the month




Created by "Weather Display" software version 10.37R Build 81 at this start time/date 6:59 pm 6/25/2014




On The Greenway Weather Web Site

 
 
HELP US OUT
Help us keep this weather station on the web. for the Tigard / Portland internet users to use. If you would like to help, click the donate button below
 
This site is purely funded by donations and by myself (Ray Cooper)
Anything you can do will help keep this station on the net
Average cost per year is $665 to publish and host this site excluding the cost of the weather equipment
Buyastrostuff.com is kind enough to host our DNS and email at no cost.
THANKS GUYS & Gals for helping
Have a Question,or just want to talk. Contact me at:
Ray Cooper @ Buyastrostuff.com